sensor_id;sensor_type;location;lat;lon;timestamp;temperature;humidity
38209;DHT22;24016;52.102;11.584;2023-04-15T00:01:22;5.60;99.90
38209;DHT22;24016;52.102;11.584;2023-04-15T00:03:51;5.60;99.90
38209;DHT22;24016;52.102;11.584;2023-04-15T00:06:20;5.50;99.90
38209;DHT22;24016;52.102;11.584;2023-04-15T00:08:46;5.50;99.90
38209;DHT22;24016;52.102;11.584;2023-04-15T00:11:12;5.50;99.90
38209;DHT22;24016;52.102;11.584;2023-04-15T00:13:38;5.50;99.90
38209;DHT22;24016;52.102;11.584;2023-04-15T00:16:04;5.50;99.90
38209;DHT22;24016;52.102;11.584;2023-04-15T00:18:30;5.50;99.90
38209;DHT22;24016;52.102;11.584;2023-04-15T00:20:59;5.50;99.90
38209;DHT22;24016;52.102;11.584;2023-04-15T00:23:25;5.50;99.90
38209;DHT22;24016;52.102;11.584;2023-04-15T00:25:51;5.50;99.90
38209;DHT22;24016;52.102;11.584;2023-04-15T00:28:16;5.40;99.90
38209;DHT22;24016;52.102;11.584;2023-04-15T00:30:42;5.50;99.90
38209;DHT22;24016;52.102;11.584;2023-04-15T00:33:08;5.40;99.90
38209;DHT22;24016;52.102;11.584;2023-04-15T00:35:34;5.40;99.90
38209;DHT22;24016;52.102;11.584;2023-04-15T00:38:00;5.50;99.90
38209;DHT22;24016;52.102;11.584;2023-04-15T00:40:26;5.40;99.90
38209;DHT22;24016;52.102;11.584;2023-04-15T00:42:52;5.40;99.90
38209;DHT22;24016;52.102;11.584;2023-04-15T00:45:17;5.40;99.90
38209;DHT22;24016;52.102;11.584;2023-04-15T00:47:43;5.40;99.90
38209;DHT22;24016;52.102;11.584;2023-04-15T00:50:10;5.40;99.90
38209;DHT22;24016;52.102;11.584;2023-04-15T00:52:37;5.50;99.90
38209;DHT22;24016;52.102;11.584;2023-04-15T00:55:03;5.40;99.90
38209;DHT22;24016;52.102;11.584;2023-04-15T00:57:30;5.50;99.90
38209;DHT22;24016;52.102;11.584;2023-04-15T00:59:56;5.50;99.90
38209;DHT22;24016;52.102;11.584;2023-04-15T01:02:22;5.50;99.90
38209;DHT22;24016;52.102;11.584;2023-04-15T01:04:48;5.50;99.90
38209;DHT22;24016;52.102;11.584;2023-04-15T01:07:13;5.50;99.90
38209;DHT22;24016;52.102;11.584;2023-04-15T01:09:40;5.50;99.90
38209;DHT22;24016;52.102;11.584;2023-04-15T01:12:06;5.50;99.90
38209;DHT22;24016;52.102;11.584;2023-04-15T01:14:33;5.50;99.90
38209;DHT22;24016;52.102;11.584;2023-04-15T01:16:58;5.50;99.90
38209;DHT22;24016;52.102;11.584;2023-04-15T01:19:24;5.50;99.90
38209;DHT22;24016;52.102;11.584;2023-04-15T01:21:49;5.50;99.90
38209;DHT22;24016;52.102;11.584;2023-04-15T01:24:17;5.60;99.90
38209;DHT22;24016;52.102;11.584;2023-04-15T01:26:42;5.50;99.90
38209;DHT22;24016;52.102;11.584;2023-04-15T01:29:08;5.60;99.90
38209;DHT22;24016;52.102;11.584;2023-04-15T01:34:32;5.50;99.90
38209;DHT22;24016;52.102;11.584;2023-04-15T01:36:57;5.50;99.90
38209;DHT22;24016;52.102;11.584;2023-04-15T01:39:23;5.50;99.90
38209;DHT22;24016;52.102;11.584;2023-04-15T01:41:49;5.50;99.90
38209;DHT22;24016;52.102;11.584;2023-04-15T01:44:14;5.50;99.90
38209;DHT22;24016;52.102;11.584;2023-04-15T01:46:40;5.60;99.90
38209;DHT22;24016;52.102;11.584;2023-04-15T01:49:08;5.60;99.90
38209;DHT22;24016;52.102;11.584;2023-04-15T01:51:34;5.60;99.90
38209;DHT22;24016;52.102;11.584;2023-04-15T01:53:59;5.60;99.90
38209;DHT22;24016;52.102;11.584;2023-04-15T01:56:25;5.60;99.90
38209;DHT22;24016;52.102;11.584;2023-04-15T01:58:51;5.70;99.90
38209;DHT22;24016;52.102;11.584;2023-04-15T02:01:17;5.60;99.90
38209;DHT22;24016;52.102;11.584;2023-04-15T02:03:44;5.60;99.90
38209;DHT22;24016;52.102;11.584;2023-04-15T02:06:10;5.60;99.90
38209;DHT22;24016;52.102;11.584;2023-04-15T02:08:35;5.60;99.90
38209;DHT22;24016;52.102;11.584;2023-04-15T02:11:02;5.60;99.90
38209;DHT22;24016;52.102;11.584;2023-04-15T02:13:35;5.60;99.90
38209;DHT22;24016;52.102;11.584;2023-04-15T02:16:02;5.60;99.90
38209;DHT22;24016;52.102;11.584;2023-04-15T02:18:28;5.60;99.90
38209;DHT22;24016;52.102;11.584;2023-04-15T02:20:54;5.60;99.90
38209;DHT22;24016;52.102;11.584;2023-04-15T02:23:24;5.60;99.90
38209;DHT22;24016;52.102;11.584;2023-04-15T02:25:50;5.60;99.90
38209;DHT22;24016;52.102;11.584;2023-04-15T02:28:15;5.60;99.90
38209;DHT22;24016;52.102;11.584;2023-04-15T02:30:41;5.60;99.90
38209;DHT22;24016;52.102;11.584;2023-04-15T02:33:07;5.60;99.90
38209;DHT22;24016;52.102;11.584;2023-04-15T02:35:32;5.60;99.90
38209;DHT22;24016;52.102;11.584;2023-04-15T02:37:58;5.60;99.90
38209;DHT22;24016;52.102;11.584;2023-04-15T02:40:28;5.60;99.90
38209;DHT22;24016;52.102;11.584;2023-04-15T02:42:53;5.70;99.90
38209;DHT22;24016;52.102;11.584;2023-04-15T02:45:19;5.70;99.90
38209;DHT22;24016;52.102;11.584;2023-04-15T02:47:47;5.70;99.90
38209;DHT22;24016;52.102;11.584;2023-04-15T02:50:13;5.70;99.90
38209;DHT22;24016;52.102;11.584;2023-04-15T02:52:40;5.70;99.90
38209;DHT22;24016;52.102;11.584;2023-04-15T02:55:06;5.70;99.90
38209;DHT22;24016;52.102;11.584;2023-04-15T02:57:32;5.70;99.90
38209;DHT22;24016;52.102;11.584;2023-04-15T02:59:59;5.70;99.90
38209;DHT22;24016;52.102;11.584;2023-04-15T03:02:33;5.70;99.90
38209;DHT22;24016;52.102;11.584;2023-04-15T03:04:59;5.70;99.90
38209;DHT22;24016;52.102;11.584;2023-04-15T03:07:25;5.70;99.90
38209;DHT22;24016;52.102;11.584;2023-04-15T03:09:52;5.70;99.90
38209;DHT22;24016;52.102;11.584;2023-04-15T03:12:17;5.70;99.90
38209;DHT22;24016;52.102;11.584;2023-04-15T03:14:43;5.70;99.90
38209;DHT22;24016;52.102;11.584;2023-04-15T03:17:08;5.70;99.90
38209;DHT22;24016;52.102;11.584;2023-04-15T03:19:36;5.70;99.90
38209;DHT22;24016;52.102;11.584;2023-04-15T03:22:01;5.80;99.90
38209;DHT22;24016;52.102;11.584;2023-04-15T03:24:27;5.80;99.90
38209;DHT22;24016;52.102;11.584;2023-04-15T03:26:57;5.80;99.90
38209;DHT22;24016;52.102;11.584;2023-04-15T03:29:23;5.80;99.90
38209;DHT22;24016;52.102;11.584;2023-04-15T03:31:49;5.70;99.90
38209;DHT22;24016;52.102;11.584;2023-04-15T03:34:15;5.70;99.90
38209;DHT22;24016;52.102;11.584;2023-04-15T03:36:40;5.80;99.90
38209;DHT22;24016;52.102;11.584;2023-04-15T03:39:06;5.80;99.90
38209;DHT22;24016;52.102;11.584;2023-04-15T03:41:32;5.80;99.90
38209;DHT22;24016;52.102;11.584;2023-04-15T03:43:57;5.80;99.90
38209;DHT22;24016;52.102;11.584;2023-04-15T03:46:23;5.90;99.90
38209;DHT22;24016;52.102;11.584;2023-04-15T03:48:48;5.90;99.90
38209;DHT22;24016;52.102;11.584;2023-04-15T03:51:14;5.90;99.90
38209;DHT22;24016;52.102;11.584;2023-04-15T03:53:39;5.90;99.90
38209;DHT22;24016;52.102;11.584;2023-04-15T03:56:05;5.90;99.90
38209;DHT22;24016;52.102;11.584;2023-04-15T03:58:31;5.90;99.90
38209;DHT22;24016;52.102;11.584;2023-04-15T04:00:56;5.90;99.90
38209;DHT22;24016;52.102;11.584;2023-04-15T04:03:22;5.90;99.90
38209;DHT22;24016;52.102;11.584;2023-04-15T04:05:47;5.90;99.90
38209;DHT22;24016;52.102;11.584;2023-04-15T04:08:13;5.90;99.90
38209;DHT22;24016;52.102;11.584;2023-04-15T04:10:40;6.00;99.90
38209;DHT22;24016;52.102;11.584;2023-04-15T04:13:06;6.00;99.90
38209;DHT22;24016;52.102;11.584;2023-04-15T04:15:32;5.90;99.90
38209;DHT22;24016;52.102;11.584;2023-04-15T04:17:57;6.00;99.90
38209;DHT22;24016;52.102;11.584;2023-04-15T04:20:23;6.00;99.90
38209;DHT22;24016;52.102;11.584;2023-04-15T04:22:48;6.00;99.90
38209;DHT22;24016;52.102;11.584;2023-04-15T04:25:14;6.00;99.90
38209;DHT22;24016;52.102;11.584;2023-04-15T04:27:40;6.00;99.90
38209;DHT22;24016;52.102;11.584;2023-04-15T04:30:06;6.00;99.90
38209;DHT22;24016;52.102;11.584;2023-04-15T04:32:32;6.00;99.90
38209;DHT22;24016;52.102;11.584;2023-04-15T04:34:58;6.00;99.90
38209;DHT22;24016;52.102;11.584;2023-04-15T04:37:23;6.00;99.90
38209;DHT22;24016;52.102;11.584;2023-04-15T04:39:49;6.00;99.90
38209;DHT22;24016;52.102;11.584;2023-04-15T04:42:15;6.00;99.90
38209;DHT22;24016;52.102;11.584;2023-04-15T04:44:40;6.00;99.90
38209;DHT22;24016;52.102;11.584;2023-04-15T04:47:06;6.00;99.90
38209;DHT22;24016;52.102;11.584;2023-04-15T04:49:32;6.00;99.90
38209;DHT22;24016;52.102;11.584;2023-04-15T04:51:58;6.00;99.90
38209;DHT22;24016;52.102;11.584;2023-04-15T04:54:24;6.00;99.90
38209;DHT22;24016;52.102;11.584;2023-04-15T04:56:50;6.00;99.90
38209;DHT22;24016;52.102;11.584;2023-04-15T04:59:16;6.00;99.90
38209;DHT22;24016;52.102;11.584;2023-04-15T05:01:41;6.00;99.90
38209;DHT22;24016;52.102;11.584;2023-04-15T05:04:07;6.00;99.90
38209;DHT22;24016;52.102;11.584;2023-04-15T05:06:32;6.10;99.90
38209;DHT22;24016;52.102;11.584;2023-04-15T05:09:00;6.10;99.90
38209;DHT22;24016;52.102;11.584;2023-04-15T05:11:26;6.00;99.90
38209;DHT22;24016;52.102;11.584;2023-04-15T05:13:51;6.10;99.90
38209;DHT22;24016;52.102;11.584;2023-04-15T05:16:17;6.00;99.90
38209;DHT22;24016;52.102;11.584;2023-04-15T05:18:44;6.00;99.90
38209;DHT22;24016;52.102;11.584;2023-04-15T05:21:09;6.10;99.90
38209;DHT22;24016;52.102;11.584;2023-04-15T05:23:36;6.10;99.90
38209;DHT22;24016;52.102;11.584;2023-04-15T05:26:02;6.10;99.90
38209;DHT22;24016;52.102;11.584;2023-04-15T05:28:28;6.20;99.90
38209;DHT22;24016;52.102;11.584;2023-04-15T05:30:53;6.10;99.90
38209;DHT22;24016;52.102;11.584;2023-04-15T05:33:19;6.10;99.90
38209;DHT22;24016;52.102;11.584;2023-04-15T05:35:44;6.20;99.90
38209;DHT22;24016;52.102;11.584;2023-04-15T05:38:11;6.20;99.90
38209;DHT22;24016;52.102;11.584;2023-04-15T05:40:37;6.20;99.90
38209;DHT22;24016;52.102;11.584;2023-04-15T05:43:02;6.20;99.90
38209;DHT22;24016;52.102;11.584;2023-04-15T05:45:28;6.20;99.90
38209;DHT22;24016;52.102;11.584;2023-04-15T05:47:53;6.20;99.90
38209;DHT22;24016;52.102;11.584;2023-04-15T05:50:19;6.20;99.90
38209;DHT22;24016;52.102;11.584;2023-04-15T05:52:45;6.20;99.90
38209;DHT22;24016;52.102;11.584;2023-04-15T05:55:11;6.20;99.90
38209;DHT22;24016;52.102;11.584;2023-04-15T05:57:37;6.20;99.90
38209;DHT22;24016;52.102;11.584;2023-04-15T06:00:03;6.20;99.90
38209;DHT22;24016;52.102;11.584;2023-04-15T06:02:29;6.30;99.90
38209;DHT22;24016;52.102;11.584;2023-04-15T06:04:56;6.30;99.90
38209;DHT22;24016;52.102;11.584;2023-04-15T06:07:22;6.30;99.90
38209;DHT22;24016;52.102;11.584;2023-04-15T06:09:47;6.30;99.90
38209;DHT22;24016;52.102;11.584;2023-04-15T06:12:13;6.30;99.90
38209;DHT22;24016;52.102;11.584;2023-04-15T06:14:39;6.30;99.90
38209;DHT22;24016;52.102;11.584;2023-04-15T06:17:05;6.30;99.90
38209;DHT22;24016;52.102;11.584;2023-04-15T06:19:31;6.40;99.90
38209;DHT22;24016;52.102;11.584;2023-04-15T06:21:57;6.40;99.90
38209;DHT22;24016;52.102;11.584;2023-04-15T06:24:23;6.40;99.90
38209;DHT22;24016;52.102;11.584;2023-04-15T06:26:48;6.40;99.90
38209;DHT22;24016;52.102;11.584;2023-04-15T06:29:14;6.40;99.90
38209;DHT22;24016;52.102;11.584;2023-04-15T06:31:39;6.40;99.90
38209;DHT22;24016;52.102;11.584;2023-04-15T06:34:05;6.40;99.90
38209;DHT22;24016;52.102;11.584;2023-04-15T06:36:30;6.50;99.90
38209;DHT22;24016;52.102;11.584;2023-04-15T06:41:29;6.50;99.90
38209;DHT22;24016;52.102;11.584;2023-04-15T06:43:55;6.50;99.90
38209;DHT22;24016;52.102;11.584;2023-04-15T06:46:21;6.50;99.90
38209;DHT22;24016;52.102;11.584;2023-04-15T06:48:46;6.60;99.90
38209;DHT22;24016;52.102;11.584;2023-04-15T06:51:12;6.60;99.90
38209;DHT22;24016;52.102;11.584;2023-04-15T06:53:37;6.60;99.90
38209;DHT22;24016;52.102;11.584;2023-04-15T06:56:07;6.60;99.90
38209;DHT22;24016;52.102;11.584;2023-04-15T06:58:32;6.70;99.90
38209;DHT22;24016;52.102;11.584;2023-04-15T07:00:58;6.60;99.90
38209;DHT22;24016;52.102;11.584;2023-04-15T07:03:23;6.70;99.90
38209;DHT22;24016;52.102;11.584;2023-04-15T07:05:49;6.70;99.90
38209;DHT22;24016;52.102;11.584;2023-04-15T07:08:15;6.70;99.90
38209;DHT22;24016;52.102;11.584;2023-04-15T07:10:40;6.70;99.90
38209;DHT22;24016;52.102;11.584;2023-04-15T07:13:06;6.70;99.90
38209;DHT22;24016;52.102;11.584;2023-04-15T07:15:33;6.70;99.90
38209;DHT22;24016;52.102;11.584;2023-04-15T07:17:58;6.70;99.90
38209;DHT22;24016;52.102;11.584;2023-04-15T07:20:24;6.70;99.90
38209;DHT22;24016;52.102;11.584;2023-04-15T07:22:50;6.80;99.90
38209;DHT22;24016;52.102;11.584;2023-04-15T07:25:15;6.80;99.90
38209;DHT22;24016;52.102;11.584;2023-04-15T07:27:42;6.80;99.90
38209;DHT22;24016;52.102;11.584;2023-04-15T07:30:08;6.90;99.90
38209;DHT22;24016;52.102;11.584;2023-04-15T07:32:35;6.90;99.90
38209;DHT22;24016;52.102;11.584;2023-04-15T07:35:00;7.00;99.90
38209;DHT22;24016;52.102;11.584;2023-04-15T07:37:28;7.00;99.90
38209;DHT22;24016;52.102;11.584;2023-04-15T07:39:54;7.10;99.90
38209;DHT22;24016;52.102;11.584;2023-04-15T07:42:20;7.10;99.90
38209;DHT22;24016;52.102;11.584;2023-04-15T07:44:45;7.20;99.90
38209;DHT22;24016;52.102;11.584;2023-04-15T07:47:11;7.20;99.90
38209;DHT22;24016;52.102;11.584;2023-04-15T07:49:36;7.20;99.90
38209;DHT22;24016;52.102;11.584;2023-04-15T07:52:02;7.20;99.90
38209;DHT22;24016;52.102;11.584;2023-04-15T07:54:28;7.30;99.90
38209;DHT22;24016;52.102;11.584;2023-04-15T07:56:53;7.30;99.90
38209;DHT22;24016;52.102;11.584;2023-04-15T07:59:20;7.30;99.90
38209;DHT22;24016;52.102;11.584;2023-04-15T08:01:45;7.40;99.90
38209;DHT22;24016;52.102;11.584;2023-04-15T08:04:11;7.40;99.90
38209;DHT22;24016;52.102;11.584;2023-04-15T08:06:36;7.50;99.90
38209;DHT22;24016;52.102;11.584;2023-04-15T08:09:04;7.60;99.90
38209;DHT22;24016;52.102;11.584;2023-04-15T08:11:30;7.60;99.90
38209;DHT22;24016;52.102;11.584;2023-04-15T08:13:56;7.70;99.90
38209;DHT22;24016;52.102;11.584;2023-04-15T08:16:23;7.70;99.90
38209;DHT22;24016;52.102;11.584;2023-04-15T08:18:51;7.70;99.90
38209;DHT22;24016;52.102;11.584;2023-04-15T08:21:17;7.80;99.90
38209;DHT22;24016;52.102;11.584;2023-04-15T08:23:44;7.70;99.90
38209;DHT22;24016;52.102;11.584;2023-04-15T08:26:10;7.70;99.90
38209;DHT22;24016;52.102;11.584;2023-04-15T08:28:37;7.80;99.90
38209;DHT22;24016;52.102;11.584;2023-04-15T08:31:03;7.70;99.90
38209;DHT22;24016;52.102;11.584;2023-04-15T08:33:29;7.80;99.90
38209;DHT22;24016;52.102;11.584;2023-04-15T08:35:54;7.80;99.90
38209;DHT22;24016;52.102;11.584;2023-04-15T08:38:20;7.80;99.90
38209;DHT22;24016;52.102;11.584;2023-04-15T08:40:45;7.90;99.90
38209;DHT22;24016;52.102;11.584;2023-04-15T08:43:22;7.90;99.90
38209;DHT22;24016;52.102;11.584;2023-04-15T08:45:53;7.90;99.90
38209;DHT22;24016;52.102;11.584;2023-04-15T08:48:19;8.00;99.90
38209;DHT22;24016;52.102;11.584;2023-04-15T08:50:45;8.00;99.90
38209;DHT22;24016;52.102;11.584;2023-04-15T08:53:12;8.00;99.90
38209;DHT22;24016;52.102;11.584;2023-04-15T08:55:45;8.10;99.90
38209;DHT22;24016;52.102;11.584;2023-04-15T08:58:12;8.10;99.90
38209;DHT22;24016;52.102;11.584;2023-04-15T09:00:38;8.20;99.90
38209;DHT22;24016;52.102;11.584;2023-04-15T09:03:04;8.10;99.90
38209;DHT22;24016;52.102;11.584;2023-04-15T09:05:34;8.20;99.90
38209;DHT22;24016;52.102;11.584;2023-04-15T09:08:00;8.20;99.90
38209;DHT22;24016;52.102;11.584;2023-04-15T09:10:26;8.20;99.90
38209;DHT22;24016;52.102;11.584;2023-04-15T09:12:52;8.30;99.90
38209;DHT22;24016;52.102;11.584;2023-04-15T09:15:17;8.30;99.90
38209;DHT22;24016;52.102;11.584;2023-04-15T09:17:44;8.40;99.90
38209;DHT22;24016;52.102;11.584;2023-04-15T09:20:11;8.40;99.90
38209;DHT22;24016;52.102;11.584;2023-04-15T09:22:38;8.30;99.90
38209;DHT22;24016;52.102;11.584;2023-04-15T09:25:25;8.40;99.90
38209;DHT22;24016;52.102;11.584;2023-04-15T09:27:55;8.40;99.90
38209;DHT22;24016;52.102;11.584;2023-04-15T09:30:21;8.40;99.90
38209;DHT22;24016;52.102;11.584;2023-04-15T09:32:55;8.40;99.90
38209;DHT22;24016;52.102;11.584;2023-04-15T09:35:22;8.40;99.90
38209;DHT22;24016;52.102;11.584;2023-04-15T09:37:49;8.40;99.90
38209;DHT22;24016;52.102;11.584;2023-04-15T09:40:39;8.50;99.90
38209;DHT22;24016;52.102;11.584;2023-04-15T09:43:06;8.50;99.90
38209;DHT22;24016;52.102;11.584;2023-04-15T09:45:33;8.50;99.90
38209;DHT22;24016;52.102;11.584;2023-04-15T09:48:23;8.50;99.90
38209;DHT22;24016;52.102;11.584;2023-04-15T09:50:51;8.50;99.90
38209;DHT22;24016;52.102;11.584;2023-04-15T09:53:23;8.60;99.90
38209;DHT22;24016;52.102;11.584;2023-04-15T09:55:57;8.60;99.90
38209;DHT22;24016;52.102;11.584;2023-04-15T09:58:27;8.60;99.90
38209;DHT22;24016;52.102;11.584;2023-04-15T10:00:55;8.60;99.90
38209;DHT22;24016;52.102;11.584;2023-04-15T10:03:28;8.60;99.90
38209;DHT22;24016;52.102;11.584;2023-04-15T10:05:55;8.60;99.90
38209;DHT22;24016;52.102;11.584;2023-04-15T10:08:29;8.70;99.90
38209;DHT22;24016;52.102;11.584;2023-04-15T10:10:55;8.70;99.90
38209;DHT22;24016;52.102;11.584;2023-04-15T10:13:24;8.70;99.90
38209;DHT22;24016;52.102;11.584;2023-04-15T10:16:09;8.70;99.90
38209;DHT22;24016;52.102;11.584;2023-04-15T10:18:37;8.80;99.90
38209;DHT22;24016;52.102;11.584;2023-04-15T10:21:04;8.80;99.90
38209;DHT22;24016;52.102;11.584;2023-04-15T10:23:31;8.80;99.90
38209;DHT22;24016;52.102;11.584;2023-04-15T10:25:57;8.80;99.90
38209;DHT22;24016;52.102;11.584;2023-04-15T10:28:23;8.90;99.90
38209;DHT22;24016;52.102;11.584;2023-04-15T10:30:50;8.80;99.90
38209;DHT22;24016;52.102;11.584;2023-04-15T10:33:20;8.80;99.90
38209;DHT22;24016;52.102;11.584;2023-04-15T10:35:47;8.80;99.90
38209;DHT22;24016;52.102;11.584;2023-04-15T10:38:34;8.80;99.90
38209;DHT22;24016;52.102;11.584;2023-04-15T10:41:20;8.80;99.90
38209;DHT22;24016;52.102;11.584;2023-04-15T10:43:53;8.90;99.90
38209;DHT22;24016;52.102;11.584;2023-04-15T10:46:39;8.90;99.90
38209;DHT22;24016;52.102;11.584;2023-04-15T10:49:11;8.90;99.90
38209;DHT22;24016;52.102;11.584;2023-04-15T10:51:40;8.90;99.90
38209;DHT22;24016;52.102;11.584;2023-04-15T10:54:12;9.00;99.90
38209;DHT22;24016;52.102;11.584;2023-04-15T10:56:41;9.00;99.90
38209;DHT22;24016;52.102;11.584;2023-04-15T10:59:07;9.10;99.90
38209;DHT22;24016;52.102;11.584;2023-04-15T11:01:53;9.00;99.90
38209;DHT22;24016;52.102;11.584;2023-04-15T11:04:50;9.10;99.90
38209;DHT22;24016;52.102;11.584;2023-04-15T11:07:33;9.10;99.90
38209;DHT22;24016;52.102;11.584;2023-04-15T11:09:58;9.10;99.90
38209;DHT22;24016;52.102;11.584;2023-04-15T11:12:35;9.20;99.90
38209;DHT22;24016;52.102;11.584;2023-04-15T11:17:55;9.20;99.90
38209;DHT22;24016;52.102;11.584;2023-04-15T11:20:21;9.20;99.90
38209;DHT22;24016;52.102;11.584;2023-04-15T11:22:48;9.20;99.90
38209;DHT22;24016;52.102;11.584;2023-04-15T11:25:34;9.20;99.90
38209;DHT22;24016;52.102;11.584;2023-04-15T11:28:00;9.10;99.90
38209;DHT22;24016;52.102;11.584;2023-04-15T11:30:37;9.10;99.90
38209;DHT22;24016;52.102;11.584;2023-04-15T11:33:05;9.00;99.90
38209;DHT22;24016;52.102;11.584;2023-04-15T11:35:31;9.00;99.90
38209;DHT22;24016;52.102;11.584;2023-04-15T11:37:57;9.00;99.90
38209;DHT22;24016;52.102;11.584;2023-04-15T11:40:27;9.10;99.90
38209;DHT22;24016;52.102;11.584;2023-04-15T11:43:15;9.10;99.90
38209;DHT22;24016;52.102;11.584;2023-04-15T11:45:58;9.20;99.90
38209;DHT22;24016;52.102;11.584;2023-04-15T11:48:29;9.10;99.90
38209;DHT22;24016;52.102;11.584;2023-04-15T11:51:05;9.00;99.90
38209;DHT22;24016;52.102;11.584;2023-04-15T11:56:01;9.10;99.90
38209;DHT22;24016;52.102;11.584;2023-04-15T11:58:28;9.00;99.90
38209;DHT22;24016;52.102;11.584;2023-04-15T12:00:56;9.00;99.90
38209;DHT22;24016;52.102;11.584;2023-04-15T12:03:43;9.10;99.90
38209;DHT22;24016;52.102;11.584;2023-04-15T12:06:22;9.10;99.90
38209;DHT22;24016;52.102;11.584;2023-04-15T12:09:03;9.10;99.90
38209;DHT22;24016;52.102;11.584;2023-04-15T12:16:37;9.10;99.90
38209;DHT22;24016;52.102;11.584;2023-04-15T12:19:05;9.10;99.90
38209;DHT22;24016;52.102;11.584;2023-04-15T12:21:37;9.00;99.90
38209;DHT22;24016;52.102;11.584;2023-04-15T12:24:04;9.00;99.90
38209;DHT22;24016;52.102;11.584;2023-04-15T12:29:11;9.10;99.90
38209;DHT22;24016;52.102;11.584;2023-04-15T12:31:52;9.10;99.90
38209;DHT22;24016;52.102;11.584;2023-04-15T12:34:31;9.10;99.90
38209;DHT22;24016;52.102;11.584;2023-04-15T12:36:58;9.10;99.90
38209;DHT22;24016;52.102;11.584;2023-04-15T12:39:25;9.10;99.90
38209;DHT22;24016;52.102;11.584;2023-04-15T12:41:51;9.10;99.90
38209;DHT22;24016;52.102;11.584;2023-04-15T12:44:17;9.00;99.90
38209;DHT22;24016;52.102;11.584;2023-04-15T12:46:43;9.10;99.90
38209;DHT22;24016;52.102;11.584;2023-04-15T12:49:09;9.00;99.90
38209;DHT22;24016;52.102;11.584;2023-04-15T12:51:35;9.00;99.90
38209;DHT22;24016;52.102;11.584;2023-04-15T12:54:00;9.00;99.90
38209;DHT22;24016;52.102;11.584;2023-04-15T12:56:26;9.00;99.90
38209;DHT22;24016;52.102;11.584;2023-04-15T12:58:52;9.00;99.90
38209;DHT22;24016;52.102;11.584;2023-04-15T13:01:17;9.00;99.90
38209;DHT22;24016;52.102;11.584;2023-04-15T13:03:43;9.00;99.90
38209;DHT22;24016;52.102;11.584;2023-04-15T13:06:09;9.10;99.90
38209;DHT22;24016;52.102;11.584;2023-04-15T13:08:34;9.10;99.90
38209;DHT22;24016;52.102;11.584;2023-04-15T13:11:00;9.10;99.90
38209;DHT22;24016;52.102;11.584;2023-04-15T13:13:26;9.10;99.90
38209;DHT22;24016;52.102;11.584;2023-04-15T13:15:52;9.10;99.90
38209;DHT22;24016;52.102;11.584;2023-04-15T13:18:17;9.10;99.90
38209;DHT22;24016;52.102;11.584;2023-04-15T13:20:43;9.10;99.90
38209;DHT22;24016;52.102;11.584;2023-04-15T13:23:08;9.10;99.90
38209;DHT22;24016;52.102;11.584;2023-04-15T13:25:34;9.10;99.90
38209;DHT22;24016;52.102;11.584;2023-04-15T13:28:01;9.10;99.90
38209;DHT22;24016;52.102;11.584;2023-04-15T13:30:27;9.10;99.90
38209;DHT22;24016;52.102;11.584;2023-04-15T13:32:53;9.10;99.90
38209;DHT22;24016;52.102;11.584;2023-04-15T13:35:19;9.10;99.90
38209;DHT22;24016;52.102;11.584;2023-04-15T13:37:46;9.10;99.90
38209;DHT22;24016;52.102;11.584;2023-04-15T13:40:12;9.00;99.90
38209;DHT22;24016;52.102;11.584;2023-04-15T13:42:38;9.10;99.90
38209;DHT22;24016;52.102;11.584;2023-04-15T13:45:04;9.00;99.90
38209;DHT22;24016;52.102;11.584;2023-04-15T13:47:30;9.00;99.90
38209;DHT22;24016;52.102;11.584;2023-04-15T13:49:56;9.00;99.90
38209;DHT22;24016;52.102;11.584;2023-04-15T13:52:22;9.00;99.90
38209;DHT22;24016;52.102;11.584;2023-04-15T13:54:49;9.00;99.90
38209;DHT22;24016;52.102;11.584;2023-04-15T13:57:15;9.00;99.90
38209;DHT22;24016;52.102;11.584;2023-04-15T13:59:41;9.00;99.90
38209;DHT22;24016;52.102;11.584;2023-04-15T14:02:06;9.00;99.90
38209;DHT22;24016;52.102;11.584;2023-04-15T14:04:32;9.00;99.90
38209;DHT22;24016;52.102;11.584;2023-04-15T14:06:58;9.10;99.90
38209;DHT22;24016;52.102;11.584;2023-04-15T14:09:25;9.10;99.90
38209;DHT22;24016;52.102;11.584;2023-04-15T14:11:52;9.10;99.90
38209;DHT22;24016;52.102;11.584;2023-04-15T14:14:17;9.10;99.90
38209;DHT22;24016;52.102;11.584;2023-04-15T14:16:43;9.10;99.90
38209;DHT22;24016;52.102;11.584;2023-04-15T14:19:09;9.10;99.90
38209;DHT22;24016;52.102;11.584;2023-04-15T14:21:35;9.20;99.90
38209;DHT22;24016;52.102;11.584;2023-04-15T14:24:01;9.30;99.90
38209;DHT22;24016;52.102;11.584;2023-04-15T14:26:26;9.40;99.90
38209;DHT22;24016;52.102;11.584;2023-04-15T14:28:54;9.40;99.90
38209;DHT22;24016;52.102;11.584;2023-04-15T14:31:28;9.40;99.90
38209;DHT22;24016;52.102;11.584;2023-04-15T14:33:56;9.40;99.90
38209;DHT22;24016;52.102;11.584;2023-04-15T14:36:25;9.40;99.90
38209;DHT22;24016;52.102;11.584;2023-04-15T14:38:52;9.50;99.90
38209;DHT22;24016;52.102;11.584;2023-04-15T14:41:18;9.40;99.90
38209;DHT22;24016;52.102;11.584;2023-04-15T14:43:47;9.50;99.90
38209;DHT22;24016;52.102;11.584;2023-04-15T14:46:13;9.50;99.90
38209;DHT22;24016;52.102;11.584;2023-04-15T14:48:41;9.50;99.90
38209;DHT22;24016;52.102;11.584;2023-04-15T14:51:09;9.50;99.90
38209;DHT22;24016;52.102;11.584;2023-04-15T14:53:35;9.60;99.90
38209;DHT22;24016;52.102;11.584;2023-04-15T14:56:04;9.60;99.90
38209;DHT22;24016;52.102;11.584;2023-04-15T14:58:39;9.60;99.90
38209;DHT22;24016;52.102;11.584;2023-04-15T15:01:05;9.50;99.90
38209;DHT22;24016;52.102;11.584;2023-04-15T15:03:36;9.60;99.90
38209;DHT22;24016;52.102;11.584;2023-04-15T15:06:06;9.70;99.90
38209;DHT22;24016;52.102;11.584;2023-04-15T15:08:34;9.70;99.90
38209;DHT22;24016;52.102;11.584;2023-04-15T15:11:04;9.70;99.90
38209;DHT22;24016;52.102;11.584;2023-04-15T15:13:52;9.60;99.90
38209;DHT22;24016;52.102;11.584;2023-04-15T15:16:31;9.60;99.90
38209;DHT22;24016;52.102;11.584;2023-04-15T15:19:05;9.60;99.90
38209;DHT22;24016;52.102;11.584;2023-04-15T15:21:32;9.60;99.90
38209;DHT22;24016;52.102;11.584;2023-04-15T15:24:19;9.50;99.90
38209;DHT22;24016;52.102;11.584;2023-04-15T15:26:57;9.50;99.90
38209;DHT22;24016;52.102;11.584;2023-04-15T15:29:39;9.50;99.90
38209;DHT22;24016;52.102;11.584;2023-04-15T15:32:11;9.40;99.90
38209;DHT22;24016;52.102;11.584;2023-04-15T15:34:37;9.40;99.90
38209;DHT22;24016;52.102;11.584;2023-04-15T15:37:06;9.30;99.90
38209;DHT22;24016;52.102;11.584;2023-04-15T15:39:32;9.30;99.90
38209;DHT22;24016;52.102;11.584;2023-04-15T15:41:59;9.30;99.90
38209;DHT22;24016;52.102;11.584;2023-04-15T15:44:24;9.30;99.90
38209;DHT22;24016;52.102;11.584;2023-04-15T15:46:53;9.30;99.90
38209;DHT22;24016;52.102;11.584;2023-04-15T15:49:19;9.30;99.90
38209;DHT22;24016;52.102;11.584;2023-04-15T15:51:44;9.30;99.90